Ashraf El Hadary

Scout - Al Ahly
3 Dec 2028
Sunday
Process

Personality

Adaptability (5) Ambition (18) Controversy (16) Loyalty (1) Pressure (1) Professionalism (20) Sportsmanship (11) Temperament (12)

Profile

Coaching Style Democratic
License Continental A
Determination 14
Man Management 14
Motivating 10
Discipline 12
Job Satisfaction
100%
Fatigue
0%
Role Scout
Wage 37.2K p/w
Contract 14.03.2030

Performance

Behaviour Good
Training Effectiveness
44%
Player Development
50%
Injury Prevention
35%
Tactical Implementation
55%

Recent Events

Attended a recruitment meeting now
Recommended a transfer target now
Recommended a transfer target now
Recommended a transfer target now
Recommended a transfer target now
Assessed a player now
Assessed a player now
Assessed a player now

Currently Monitoring

259
Player Club Status Ability Confidence Watched Last Observed Latest Vote
Matheus Cunha Cruzeiro Active 136 / 134 40% 2 01.12.2028 -
Carlos Miguel Palmeiras Active 135 / 129 40% 2 01.12.2028 -
Fabrizio Correa Juventud Active 127 / 125 40% 1 01.12.2028 -
Jesus Ferreira Seattle Sounders Active 137 / 134 40% 2 30.11.2028 -
Alan Lescano Argentinos Juniors Active 137 / 129 40% 4 30.11.2028 -
Kaiki Cruzeiro Active 140 / 125 40% 1 30.11.2028 -
Pavel Bucha Portland Timbers Active 136 / 143 40% 4 29.11.2028 -
Gérson Cruzeiro Active 143 / 154 40% 4 29.11.2028 -
Griffin Yow New England Revolution Active 133 / 143 40% 4 29.11.2028 -
Alex Luna Instituto Active 133 / 128 40% 3 28.11.2028 -
Jens Petter Hauge Bodo/Glimt Active 141 / 144 40% 4 28.11.2028 -
Cristian Olivera Grêmio Active 131 / 130 40% 2 28.11.2028 -
Allan Saint-Maximin Charlotte Football Club Active 145 / 129 40% 10 27.11.2028 -
Diego Luna Real Salt Lake Active 136 / 132 40% 9 27.11.2028 -
Malcom Al Jazira Active 155 / 139 40% 2 27.11.2028 -
Gabriel Batista Botafogo Active 128 / 117 40% 5 26.11.2028 -
Lucas Arcanjo Vitória Active 130 / 139 40% 2 26.11.2028 -
Magrão Fortaleza Active 130 / 116 40% 1 26.11.2028 -
Nuno Moreira Vasco da Gama Active 135 / 127 40% 2 24.11.2028 -
Tiago Palacios Estudiantes Active 135 / 142 40% 5 23.11.2028 -
Franco Orozco Lanús Active 131 / 136 40% 2 23.11.2028 -
Gonzalo Plata Nacional Active 143 / 129 40% 11 22.11.2028 -
Joseph Paintsil FC Cincinnati Active 134 / 134 40% 7 22.11.2028 -
Calebe Fortaleza Active 138 / 121 40% 1 22.11.2028 -
Talles Magno New York City Active 137 / 142 40% 4 21.11.2028 -
Toni Fruk Talleres Active 141 / 147 40% 1 21.11.2028 -
James Trafford Leeds United Active 156 / 144 40% 11 20.11.2028 -
Facundo Sanguinetti Banfield Active 131 / 130 40% 3 20.11.2028 -
Santiago Rodríguez Columbus Crew Active 134 / 128 40% 3 20.11.2028 -
Gustavo Neves Bragantino Active 134 / 136 40% 1 20.11.2028 -
Musa Barrow ES Setif Active 146 / 139 40% 1 20.11.2028 -
Lyle Foster Rosenborg Active 138 / 120 40% 6 17.11.2028 -
Galeno Al-Ahli Active 158 / 154 40% 2 17.11.2028 -
Agustín Anello Philadelphia Union Active 129 / 141 40% 6 16.11.2028 -
Erick Pulga Bahia Active 137 / 147 40% 1 16.11.2028 -
Angus Gunn San Jose Earthquakes Active 131 / 135 40% 2 15.11.2028 -
Matko Miljevic Racing Club Active 133 / 146 40% 10 15.11.2028 -
Carlos Coronel Fluminense Active 139 / 150 40% 2 15.11.2028 -
Djordje Mihailović Toronto FC Active 132 / 131 40% 1 15.11.2028 -
Sebastián Meza Bragantino Active 129 / 136 40% 1 15.11.2028 -
David Da Costa Portland Timbers Active 136 / 118 40% 3 13.11.2028 -
Jaminton Campaz Rosario Central Active 134 / 128 40% 4 13.11.2028 -
Jonathan De Irastorza Independiente Active 131 / 133 40% 3 12.11.2028 -
Antony Portland Timbers Active 137 / 140 40% 5 11.11.2028 -
Farid El Melali Tractor Active 133 / 127 40% 1 11.11.2028 -
Nikola Vasilj Racing Club Active 139 / 137 40% 3 10.11.2028 -
Cristian Medina Botafogo Active 134 / 126 40% 1 10.11.2028 -
Thiago Cardozo Unión de Santa Fe Active 125 / 136 40% 1 10.11.2028 -
Ruben Alte Viking Active 130 / 131 40% 3 08.11.2028 -
Alexander Aravena Portland Timbers Active 134 / 133 40% 1 08.11.2028 -
Francis Amuzu Atletico Goianiense Active 136 / 128 40% 1 08.11.2028 -
Facundo Altamirano San Lorenzo Active 122 / 111 40% 2 07.11.2028 -
Renzo Bacchia Racing Active 123 / 137 40% 1 07.11.2028 -
CJ dos Santos San Diego Football Club Active 121 / 107 40% 1 07.11.2028 -
Rodrigo Atencio São Paulo Active 129 / 121 40% 4 06.11.2028 -
Leandro Andrade Chicago Fire Active 135 / 118 40% 9 03.11.2028 -
Santiago Montiel Independiente Active 130 / 141 40% 2 03.11.2028 -
Riqui Puig CF Montreal Active 140 / 143 40% 4 02.11.2028 -
Oscar Al-Taawoun Active 156 / 141 40% 1 31.10.2028 -
Emmanuel Latte Lath Atlanta United FC Active 141 / 128 40% 2 29.10.2028 -
Juan Cruz de los Santos Nacional Active 133 / 135 40% 2 29.10.2028 -
Jack Harrison New England Revolution Active 135 / 134 40% 4 27.10.2028 -
Erik Botheim Viking Active 129 / 121 40% 1 26.10.2028 -
Marco Pašalić Orlando City Active 132 / 115 40% 5 25.10.2028 -
Juan Bisanz Huracán Active 131 / 133 40% 2 25.10.2028 -
Riku Yamane Yokohama F. Marinos Active 139 / 135 40% 2 20.10.2028 -
Aarón Molinas Defensa y Justicia Active 130 / 128 40% 3 20.10.2028 -
Mauricio Amaro Atlanta United FC Active 130 / 134 40% 1 18.10.2028 -
Lucas Sanabria LA Galaxy Active 136 / 144 40% 1 17.10.2028 -
Vitinho Internacional Active 132 / 126 40% 1 15.10.2028 -
Azizbek To'lqinbekov Bunyodkor Active 102 / 95 40% 1 15.10.2028 -
Omar Kamel Vasco da Gama Active 92 / 102 40% 1 15.10.2028 -
Celías Ingenthron Platense Active 119 / 120 40% 1 15.10.2028 -
Abduvohid Ne'matov Nasaf Active 131 / 129 40% 3 13.10.2028 -
Samuel Brolin Kalmar FF Active 128 / 125 40% 2 13.10.2028 -
Hernán López Muñoz San Jose Earthquakes Active 134 / 132 40% 4 11.10.2028 -
Alan Velasco Fortaleza Active 137 / 121 40% 2 08.10.2028 -
Joel Mvuka Bodo/Glimt Active 129 / 123 40% 1 08.10.2028 -
Luca Langoni Columbus Crew Active 137 / 146 40% 4 05.10.2028 -
Christian Kouamé Atlético Mineiro Active 133 / 128 40% 1 04.10.2028 -
John Pulskamp Sporting Kansas City Active 124 / 126 40% 2 03.10.2028 -
Lucas Cuevas Rosario Central Active 125 / 139 40% 2 03.10.2028 -
Martín Ojeda Orlando City Active 138 / 140 40% 1 03.10.2028 -
Antonio Galeano Remo Stars Active 133 / 114 40% 1 01.10.2028 -
Paxten Aaronson Colorado Rapids Active 140 / 147 40% 1 28.09.2028 -
Roman Celentano FC Cincinnati Active 132 / 137 40% 8 27.09.2028 -
Adrian Šemper Al-Fateh Active 138 / 130 40% 8 27.09.2028 -
Cristopher Varela Deportivo La Guaira Active 125 / 127 40% 3 27.09.2028 -
Muminhon Bahodirxonov Neftchi Active 96 / 114 40% 1 26.09.2028 -
Jofre Torrents Ajax Active 135 / 128 40% 1 26.09.2028 -
Samuel Molano Patriotas Active 88 / 109 40% 1 26.09.2028 -
Bénie Traoré New York City Active 132 / 127 40% 2 22.09.2028 -
Elias Achouri San Diego Football Club Active 134 / 141 40% 1 22.09.2028 -
Diego Romero Universitario Active 128 / 142 40% 5 18.09.2028 -
Joaquín Blázquez Talleres Active 126 / 132 40% 1 18.09.2028 -
Felipe Peña Biafore Lanús Active 132 / 143 40% 2 15.09.2028 -
Joaquín Pereyra Minnesota United FC Active 132 / 142 40% 1 09.09.2028 -
Rodrigo Garro Corinthians Active 140 / 141 40% 1 08.09.2028 -
Oleh Ocheretko FC Dallas Active 134 / 126 40% 1 05.09.2028 -
Gabriel Grando São Paulo Active 128 / 139 40% 1 30.08.2028 -
Tomás Romero New York City Active 123 / 134 40% 1 30.08.2028 -
Dayne St. Clair Inter Miami CF Active 129 / 145 40% 7 26.08.2028 -
Novak Mićović LA Galaxy Active 127 / 116 40% 4 26.08.2028 -
Jay Gorter Pafos Active 135 / 141 40% 3 24.08.2028 -
Matías Mansilla Estudiantes Active 127 / 140 40% 1 23.08.2028 -
Luis Ingolotti Atlético Tucumán Active 127 / 124 40% 1 22.08.2028 -
Youssef Belammari Arab Contractors Report Ready 132 / 133 93% 1 21.08.2028 -
Drake Callender Minnesota United FC Active 126 / 128 40% 1 21.08.2028 -
James Pantemis Portland Timbers Active 124 / 122 40% 1 21.08.2028 -
Alex Meret Napoli Active 159 / 162 40% 2 19.08.2028 -
Luca Gemello Perugia Active 123 / 109 40% 1 18.08.2028 -
Niv Eliasi Hapoel Beer Sheva Active 133 / 125 40% 1 18.08.2028 -
Federico Losas Chacarita Juniors Active 124 / 129 40% 1 18.08.2028 -
Filippo Rinaldi Parma Active 135 / 146 40% 6 16.08.2028 -
Christos Mandas Lazio Active 151 / 142 40% 7 14.08.2028 -
Sergio Barlocco Trento Active 126 / 140 40% 2 14.08.2028 -
Alejandro Rodríguez Melgar Active 127 / 126 40% 9 13.08.2028 -
Luciano Jachfe Nueva Chicago Active 123 / 119 40% 1 13.08.2028 -
Samu Maccabi Netanya Active 126 / 135 40% 1 13.08.2028 -
Diego Enríquez Sporting Cristal Active 142 / 151 40% 6 12.08.2028 -
Riccardo Gagno Vicenza Active 129 / 141 40% 1 11.08.2028 -
Oliver Dovin Coventry City Active 145 / 158 40% 9 09.08.2028 -
Amir Saipi Mallorca Active 135 / 123 40% 1 09.08.2028 -
Nathan Bishop AFC Wimbledon Active 122 / 122 40% 1 09.08.2028 -
Fran Vieites Walsall Active 132 / 146 40% 1 07.08.2028 -
Alexei Rojas Fedorushchenko Barrow AFC Active 128 / 128 40% 1 07.08.2028 -
Isaac Saviour Ittihad Report Ready 111 / 120 90% 1 05.06.2028 -
Karim El Eraki El Masry Report Ready 122 / 132 90% 1 04.06.2028 -
Ghaith Al-Madadha Al Gaish Report Ready 101 / 92 90% 1 03.06.2028 -
Lee Buchanan Sheffield Wednesday Active 126 / 121 40% 4 02.06.2028 -
Michael Baidoo Plymouth Argyle Active 131 / 123 40% 1 02.06.2028 -
Bafodé Diakité Plymouth Argyle Active 147 / 132 40% 1 02.06.2028 -
Evgeny Latyshonok Nizhniy Novgorod Active 129 / 138 40% 8 31.05.2028 -
Ruslan Neshcheret Oleksandriya Active 133 / 125 40% 3 31.05.2028 -
Amine Adli Bournemouth Active 150 / 139 40% 1 31.05.2028 -
Nathan Broadhead Wrexham Active 134 / 123 40% 1 31.05.2028 -
Robin Roefs Sunderland Active 150 / 142 40% 6 30.05.2028 -
Mark Travers Leicester City Active 148 / 158 40% 1 30.05.2028 -
Lukas Jensen Millwall Active 124 / 122 40% 1 30.05.2028 -
Gaëtan Coucke Sampdoria Active 124 / 140 40% 3 27.05.2028 -
Oleksandr Kemkin Karpaty Active 127 / 133 40% 1 26.05.2028 -
Giorgi Mamardashvili Liverpool Active 171 / 180 40% 5 25.05.2028 -
Daniel Peretz Wolverhampton Active 149 / 133 40% 1 25.05.2028 -
Matt Freese Shakhtar Active 138 / 133 40% 8 24.05.2028 -
Mads Hermansen West Ham United Active 146 / 156 40% 9 23.05.2028 -
Radek Vítek Middlesbrough Active 150 / 149 40% 4 23.05.2028 -
Jonathan Klinsmann Cesena Active 132 / 138 40% 3 20.05.2028 -
Balázs Tóth Blackburn Rovers Active 135 / 126 40% 6 20.05.2028 -
Maxim Borisko CSKA Moscow Active 130 / 132 40% 3 20.05.2028 -
Oufa Shobeir MC Alger Active 131 / 139 40% 8 18.05.2028 -
Elia Caprile Cagliari Active 154 / 141 40% 8 18.05.2028 -
Anthony Patterson Wrexham Active 136 / 146 40% 10 16.05.2028 -
Josh Keeley Luton Town Active 141 / 130 40% 10 14.05.2028 -
Nathan Trott Cardiff City Active 129 / 116 40% 6 13.05.2028 -
Vanja Milinković-Savić Atalanta Active 155 / 141 40% 4 13.05.2028 -
Dean Henderson Crystal Palace Active 155 / 157 40% 12 12.05.2028 -
Caoimhin Kelleher Brentford Active 161 / 151 40% 7 10.05.2028 -
Lukáš Horníček Burnley Active 151 / 141 40% 8 05.05.2028 -
Murphy Cooper Plymouth Argyle Active 127 / 121 40% 1 03.05.2028 -
Fran Vieites Walsall Lost 127 / 141 40% 6 25.04.2028 -
Sol Brynn Bradford City Active 130 / 140 40% 6 22.04.2028 -
Aaron Ramsdale Southampton Active 154 / 144 40% 7 21.04.2028 -
Denis Adamov Zenit Active 129 / 128 40% 5 19.04.2028 -
Maílson Al-Taawoun Active 129 / 129 40% 5 19.04.2028 -
Michele Cerofolini Empoli Active 131 / 138 40% 2 14.04.2028 -
Hugo Souza Corinthians Active 136 / 131 40% 1 14.04.2028 -
Gabriel Brazão Santos Active 141 / 126 40% 1 10.04.2028 -
Matías Palacios Al Ain Active 144 / 153 40% 3 31.01.2028 -
Mees Kaandorp Wadi Degla Active 112 / 115 86% 1 31.01.2028 Approve
Marius Marin Al Nasr Active 134 / 124 40% 1 31.01.2028 -
Enzo Millot Al-Ahli Active 146 / 148 40% 1 31.01.2028 -
Leopold Wahlstedt Rosenborg Active 126 / 118 40% 1 27.12.2027 -
Vladan Kovačević Norwich City Active 131 / 114 40% 5 25.12.2027 -
Ľubomír Belko Viking Active 132 / 150 40% 3 16.12.2027 -
Patrick Schulte Columbus Crew Active 122 / 128 40% 6 06.12.2027 -
Melker Ellborg Sunderland Active 127 / 147 40% 1 15.10.2027 -
Ezequiel Centurión River Plate Active 120 / 127 40% 4 02.10.2027 -
Alex Palmer Ipswich Town Active 132 / 119 40% 1 15.09.2027 -
Mehdi Dorval Catanzaro Active 135 / 123 40% 2 11.08.2027 -
Rolando Mandragora Torino Active 155 / 138 40% 1 11.08.2027 -
Alexey Miranchuk Atlanta United FC Active 140 / 152 40% 2 09.08.2027 -
Ross Stewart Southampton Active 124 / 111 40% 1 09.08.2027 -
Ramón Mierez Al Nasr Active 122 / 114 40% 1 09.08.2027 -
Pelle Mattsson Norwich City Active 136 / 129 40% 4 08.08.2027 -
Romano Floriani Mussolini Blackpool Active 123 / 117 40% 3 04.08.2027 -
Tom Hamer Lincoln City Active 114 / 100 40% 1 04.08.2027 -
Femi Seriki Sheffield United Active 135 / 129 40% 1 03.08.2027 -
Christoph Klarer Birmingham Active 132 / 135 40% 1 03.08.2027 -
Elijah Adebayo Luton Town Active 123 / 121 40% 2 02.08.2027 -
Dániel Gazdag New England Revolution Active 122 / 113 40% 1 02.08.2027 -
Xavier Simons Bolton Wanderers Active 122 / 138 40% 2 28.07.2027 -
Rafael Rodrigues Al Ain Active 125 / 114 40% 3 28.07.2027 -
Matthew Targett Hull City Active 127 / 140 40% 2 27.07.2027 -
Josh Brownhill Al-Shabab Active 133 / 144 40% 1 27.07.2027 -
Jaime Seoane Al-Faisaly Active 147 / 136 40% 1 26.07.2027 -
Matt Clarke Derby County Active 126 / 125 40% 1 26.07.2027 -
Oleksii Hutsuliak Polissia Active 127 / 122 40% 2 23.07.2027 -
Joel Pohjanpalo Palermo Active 136 / 141 40% 2 23.07.2027 -
Max Cleworth Wrexham Active 132 / 127 40% 1 22.07.2027 -
Valentino Lazaro Al Ain Active 151 / 143 40% 1 22.07.2027 -
Grégoire Coudert Burnley Active 126 / 137 40% 2 21.07.2027 -
Lewis Gibson Preston Active 126 / 111 40% 1 21.07.2027 -
Florian Grillitsch Frosinone Active 134 / 122 40% 1 21.07.2027 -
Pep Biel Charlotte Football Club Active 128 / 144 40% 1 20.07.2027 -
Mohammed Abu Al-Shamat Al-Qadisiyah Active 122 / 145 40% 2 19.07.2027 -
Idris El Mizouni Leyton Orient Active 116 / 136 40% 1 19.07.2027 -
Atsuki Ito Bolton Wanderers Active 120 / 139 40% 1 16.07.2027 -
Justin Devenny Stoke City Active 128 / 118 40% 1 13.07.2027 -
Andrea Meroni Mantova Active 135 / 145 40% 1 13.07.2027 -
Bertrand Traoré Sunderland Active 130 / 134 40% 3 10.07.2027 -
Ivan Sergeev Dinamo Moscow Active 128 / 136 40% 3 10.07.2027 -
Mirlind Daku Spartak Moscow Active 131 / 126 40% 4 10.07.2027 -
Petar Musa FC Dallas Active 142 / 140 40% 2 08.07.2027 -
Hwang Hee-Chan Wolverhampton Active 133 / 151 40% 1 08.07.2027 -
Jonathan Varane Queens Park Rangers Active 126 / 114 40% 2 07.07.2027 -
Emam Ashour Alianza Lima Active 131 / 118 40% 1 07.07.2027 -
Jordan Lotomba Bloemfontein Celtic Active 128 / 131 40% 1 07.07.2027 -
Cheikh Sabaly Vancouver Whitecaps Active 130 / 124 40% 2 05.07.2027 -
Christian Walton Ipswich Town Active 128 / 124 40% 2 05.07.2027 -
Nikita Haikin Bodo/Glimt Active 147 / 121 40% 2 27.06.2027 -
Mounder Temine El Masry Active 104 / 113 79% 1 14.06.2027 Approve
Liel Abada Inter Miami CF Active 132 / 146 40% 1 14.06.2027 -
Dion Lopy Al-Ittihad Active 139 / 143 40% 1 30.05.2027 -
Domagoj Drožđek Tractor Active 128 / 134 40% 3 27.05.2027 -
Amir Hossein Hosseinzadeh Tractor Active 132 / 139 40% 3 26.05.2027 -
Terry Devlin Portsmouth Active 119 / 127 40% 1 26.05.2027 -
Giorgi Kvernadze Frosinone Active 129 / 127 40% 5 24.05.2027 -
Mehdi Ghayedi Al Nasr Active 136 / 118 40% 2 22.05.2027 -
Joel Bagan Cardiff City Active 115 / 108 40% 2 19.05.2027 -
Alfie Devine Preston Active 111 / 114 40% 2 19.05.2027 -
Leighton Clarkson Blackpool Active 119 / 115 40% 2 19.05.2027 -
Willem Geubbels Lecce Active 134 / 126 40% 2 18.05.2027 -
Enzo Copetti Rosario Central Active 118 / 114 40% 1 18.05.2027 -
Ignacio Russo Tigre Active 130 / 115 40% 1 14.05.2027 -
Timo Werner San Jose Earthquakes Active 121 / 114 40% 1 09.05.2027 -
Alexis Cuello San Lorenzo Active 122 / 130 40% 2 02.05.2027 -
Brian De Keersmaecker Oxford United Active 127 / 139 40% 2 30.04.2027 -
Caspar Jander Southampton Active 124 / 145 40% 1 30.04.2027 -
Hayden Carter Blackburn Rovers Active 124 / 127 40% 1 30.04.2027 -
Kwadwo Duah Ludogorets Active 128 / 135 40% 1 25.04.2027 -
Adam Gnezda Čerin Al Wahda Active 119 / 126 40% 2 22.04.2027 -
Vitinha Genoa Active 134 / 139 40% 3 21.04.2027 -
Ethan Pye Stockport County Active 124 / 122 40% 1 20.04.2027 -
Alfie Gilchrist West Bromwich Albion Active 128 / 115 40% 1 20.04.2027 -
Yacine Adli Al-Shabab Active 141 / 150 40% 2 18.04.2027 -
Musab Al-Juwayr Al-Qadisiyah Active 130 / 118 40% 1 18.04.2027 -
Yarden Shua Beitar Jerusalem Active 129 / 136 40% 3 16.04.2027 -
Edwuin Cetré Estudiantes Active 127 / 132 40% 1 11.04.2027 -
Róbert Boženík Stoke City Active 133 / 109 40% 1 06.04.2027 -
Hugo Al Wasl Active 118 / 121 40% 1 26.03.2027 -
Abdoulkarim Traoré Al Ain Active 119 / 137 40% 1 26.03.2027 -
Mitchel Bakker Modena Active 138 / 109 40% 1 20.03.2027 -
Andre Dozzell Bradford City Active 112 / 115 40% 1 19.03.2027 -
Ziyad Al-Johani Al-Ahli Active 118 / 100 40% 1 18.03.2027 -
Rubens Dinamo Moscow Active 127 / 127 40% 1 02.01.2027 -
Salah Mohsen El Masry Active 120 / 117 79% 1 01.01.2027 Approve
Roger Ibañez Al-Ahli Active 146 / 150 40% 1 31.12.2026 -
Mohamed Antar Active 104 / 98 79% 1 10.08.2026 Approve
Gastón Álvarez Al-Qadisiyah Active 137 / 144 40% 1 02.08.2026 -